Sidney, TX (76474)

3:05 PM CDT on March 28, 2017 (GMT -0500)
Residential | | Change Station

Elev 1388 ft 31.91 °N, 98.61 °W | Updated 19 seconds ago

Overcast
Overcast
77.5 °F
Feels Like 79 °F
N
11.0
Wind Variable Wind from East

Today
High -- | Low -- °F
--% Chance of Precip.
Yesterday
High -- | Low -- °F
Precip. -- in
Pressure 29.73 in
Visibility 10.0 miles
Clouds Mostly Cloudy 2600 ft
Mostly Cloudy 3600 ft
Overcast 5000 ft
Heat Index 79 °F
Dew Point 66 °F
Humidity 69%
Rainfall 0.00 in
Snow Depth Not available.
7:28 AM 7:52 PM
New Moon, 1% visible
METAR KMKN 281935Z AUTO 14011G24KT 10SM BKN026 BKN036 OVC050 24/19 A2973 RMK AO2 T02430185
Pressure 29.73 in
Visibility 10.0 miles
Clouds Mostly Cloudy 2600 ft
Mostly Cloudy 3600 ft
Overcast 5000 ft
Heat Index 79 °F
Dew Point 66 °F
Humidity 69%
Rainfall 0.00 in
Snow Depth Not available.
7:28 AM 7:52 PM
New Moon, 1% visible
METAR KMKN 281935Z AUTO 14011G24KT 10SM BKN026 BKN036 OVC050 24/19 A2973 RMK AO2 T02430185

Get Severe Weather Alerts

Thanks for signing up!

Be on the lookout for a verification email in your inbox.

You'll start receiving the daily forecast at 8 AM.

×

10-Day Weather Forecast

Almanac

Astronomy

Mar. 28, 2017 Rise Set
Actual Time
Civil Twilight
Nautical Twilight
Astronomical Twilight
Moon
Length of Visible Light
Length of Day
Tomorrow will be .
, % of the Moon is Illuminated

Today's Extremes

State Highs State Lows

Community

WunderPhotos

Upload Photos

1,962,540 photos uploaded!

WunderBlog® & News

Nearby

Air Quality

  Air Quality AQ Index Pollutant
Not available.

Snow Depth

Station Depth Elevation

Earthquake Activity

City Distance Mag. Time & Date
Minimum magnitude displayed is 2.5.

Earthquake Activity

City Distance Mag. Time & Date
Minimum magnitude displayed is 2.5.

Coastal Water Temperatures

Place Temperature

Stations

Nearby Weather Stations

Station Location Temp. Windchill Dew Point Humidity Wind Precip. Elev Updated Type
                   

Watches & Warnings

There are currently no watches in effect.